^^
Your Local Weather - Clay, NY Station Historical Data
Daily Summary for October 26, 2017 Units:  English    Metric   Both
« Previous Day
Next Day »
Daily Weekly Monthly Yearly Custom
  High: Low: Average:
Temperature: 55.0 °F 42.8 °F 47.6 °F
Dew Point: 43.5 °F 34.9 °F 39.5 °F
Humidity: 91% 54% 74%
Wind Speed: 5.0mph 0.0mph 1.2mph
Wind Gust: 10.0mph - -
Wind- - West
Pressure: 29.84 in 29.73 in -
Precipitation: 0.01 in    
Historical Graphs
 
 
Tabular Data for October 26, 2017
Time Temperature Dew Point Pressure Wind Wind Speed Wind Gust Humidity Rainfall Rate (Hourly) solar
00:02 42.8 °F 40.4 °F 29.75 in Calm     91% 0.00 in 0 W/m2
00:08 43.0 °F 40.3 °F 29.74 in Calm     90% 0.00 in 0 W/m2
00:14 43.0 °F 40.3 °F 29.75 in Calm     90% 0.00 in 0 W/m2
00:20 43.0 °F 40.3 °F 29.75 in Calm     90% 0.00 in 0 W/m2
00:26 43.1 °F 40.4 °F 29.74 in Calm     90% 0.00 in 0 W/m2
00:32 43.2 °F 40.5 °F 29.75 in Calm     90% 0.00 in 0 W/m2
00:38 43.3 °F 40.6 °F 29.74 in Calm     90% 0.00 in 0 W/m2
00:44 43.4 °F 40.7 °F 29.74 in Calm     90% 0.00 in 0 W/m2
00:50 43.6 °F 40.9 °F 29.75 in Calm     90% 0.00 in 0 W/m2
01:02 43.9 °F 41.2 °F 29.74 in Calm     90% 0.00 in 0 W/m2
01:08 44.0 °F 41.3 °F 29.75 in Calm     90% 0.00 in 0 W/m2
01:14 44.1 °F 41.4 °F 29.76 in Calm     90% 0.00 in 0 W/m2
01:20 44.1 °F 41.4 °F 29.75 in Calm     90% 0.00 in 0 W/m2
01:26 44.1 °F 41.4 °F 29.76 in Calm     90% 0.00 in 0 W/m2
01:32 44.0 °F 41.3 °F 29.75 in Calm     90% 0.00 in 0 W/m2
01:38 44.0 °F 41.3 °F 29.75 in Calm     90% 0.00 in 0 W/m2
01:44 44.1 °F 41.4 °F 29.76 in Calm     90% 0.00 in 0 W/m2
01:50 44.1 °F 41.4 °F 29.75 in Calm     90% 0.00 in 0 W/m2
01:56 44.2 °F 41.5 °F 29.76 in Calm     90% 0.00 in 0 W/m2
02:02 44.4 °F 41.7 °F 29.77 in Calm     90% 0.00 in 0 W/m2
02:08 44.6 °F 41.8 °F 29.77 in Calm   2.0 mph 90% 0.00 in 0 W/m2
02:14 44.9 °F 42.1 °F 29.77 in NW 1.0 mph 2.0 mph 90% 0.00 in 0 W/m2
02:20 45.2 °F 42.2 °F 29.77 in Calm     89% 0.00 in 0 W/m2
02:26 45.3 °F 42.2 °F 29.77 in Calm     89% 0.00 in 0 W/m2
02:32 45.3 °F 42.2 °F 29.77 in Calm     89% 0.00 in 0 W/m2
02:40 45.4 °F 42.1 °F 29.78 in Calm   1.0 mph 88% 0.00 in 0 W/m2
02:46 45.6 °F 42.3 °F 29.77 in NW 1.0 mph 3.0 mph 88% 0.00 in 0 W/m2
02:52 45.6 °F 42.0 °F 29.77 in NW 1.0 mph 2.0 mph 87% 0.00 in 0 W/m2
02:58 45.5 °F 41.9 °F 29.76 in NW 1.0 mph 2.0 mph 87% 0.00 in 0 W/m2
03:04 45.5 °F 41.9 °F 29.75 in Calm   1.0 mph 87% 0.00 in 0 W/m2
03:10 45.4 °F 41.8 °F 29.73 in Calm     87% 0.00 in 0 W/m2
03:16 45.4 °F 41.8 °F 29.73 in Calm     87% 0.00 in 0 W/m2
03:22 45.4 °F 42.1 °F 29.73 in Calm     88% 0.00 in 0 W/m2
03:28 45.4 °F 42.1 °F 29.74 in Calm     88% 0.00 in 0 W/m2
03:34 45.4 °F 42.1 °F 29.74 in Calm     88% 0.00 in 0 W/m2
03:40 45.5 °F 42.2 °F 29.74 in Calm     88% 0.00 in 0 W/m2
03:46 45.6 °F 42.3 °F 29.74 in Calm     88% 0.00 in 0 W/m2
03:52 45.6 °F 42.5 °F 29.75 in Calm     89% 0.00 in 0 W/m2
03:58 45.7 °F 42.6 °F 29.76 in Calm     89% 0.00 in 0 W/m2
04:04 45.7 °F 42.6 °F 29.76 in Calm     89% 0.00 in 0 W/m2
04:10 45.7 °F 42.6 °F 29.77 in Calm     89% 0.00 in 0 W/m2
04:16 45.7 °F 42.6 °F 29.77 in Calm     89% 0.00 in 0 W/m2
04:22 45.7 °F 42.6 °F 29.77 in Calm     89% 0.00 in 0 W/m2
04:28 45.7 °F 42.6 °F 29.77 in Calm     89% 0.00 in 0 W/m2
04:34 45.7 °F 42.9 °F 29.77 in Calm     90% 0.00 in 0 W/m2
04:40 45.8 °F 43.0 °F 29.77 in Calm     90% 0.00 in 0 W/m2
04:46 45.8 °F 43.0 °F 29.77 in Calm     90% 0.00 in 0 W/m2
04:52 45.7 °F 42.9 °F 29.77 in Calm     90% 0.00 in 0 W/m2
04:58 45.7 °F 42.9 °F 29.76 in Calm     90% 0.00 in 0 W/m2
05:04 45.6 °F 42.8 °F 29.76 in Calm     90% 0.00 in 0 W/m2
05:10 45.7 °F 42.9 °F 29.76 in Calm     90% 0.00 in 0 W/m2
05:16 45.6 °F 42.8 °F 29.77 in Calm     90% 0.00 in 0 W/m2
05:22 45.5 °F 42.7 °F 29.77 in Calm     90% 0.00 in 0 W/m2
05:28 45.5 °F 42.7 °F 29.77 in Calm     90% 0.00 in 0 W/m2
05:34 45.5 °F 43.0 °F 29.77 in Calm     91% 0.00 in 0 W/m2
05:40 45.5 °F 43.0 °F 29.78 in Calm     91% 0.00 in 0 W/m2
05:46 45.5 °F 43.0 °F 29.78 in Calm     91% 0.00 in 0 W/m2
05:52 45.5 °F 43.0 °F 29.78 in Calm     91% 0.00 in 0 W/m2
05:58 45.5 °F 43.0 °F 29.79 in Calm     91% 0.00 in 0 W/m2
06:04 45.5 °F 43.0 °F 29.79 in Calm     91% 0.00 in 0 W/m2
06:10 45.6 °F 43.1 °F 29.78 in Calm     91% 0.00 in 0 W/m2
06:16 45.6 °F 43.1 °F 29.79 in Calm     91% 0.00 in 0 W/m2
06:22 45.6 °F 43.1 °F 29.79 in Calm     91% 0.00 in 0 W/m2
06:28 45.6 °F 43.1 °F 29.78 in Calm     91% 0.00 in 0 W/m2
06:34 45.5 °F 43.0 °F 29.79 in Calm     91% 0.00 in 0 W/m2
06:40 45.5 °F 43.0 °F 29.79 in Calm     91% 0.00 in 0 W/m2
06:46 45.4 °F 42.9 °F 29.79 in Calm     91% 0.00 in 0 W/m2
06:52 45.3 °F 42.8 °F 29.80 in Calm     91% 0.00 in 0 W/m2
06:58 45.3 °F 42.8 °F 29.80 in Calm     91% 0.00 in 0 W/m2
07:04 45.2 °F 42.7 °F 29.80 in Calm     91% 0.00 in 0 W/m2
07:10 45.1 °F 42.6 °F 29.80 in Calm     91% 0.00 in 0 W/m2
07:16 45.1 °F 42.6 °F 29.80 in Calm     91% 0.00 in 0 W/m2
07:22 45.0 °F 42.5 °F 29.80 in Calm     91% 0.00 in 0 W/m2
07:28 44.8 °F 42.3 °F 29.80 in Calm     91% 0.00 in 0 W/m2
07:34 44.6 °F 42.1 °F 29.80 in Calm     91% 0.00 in 0 W/m2
07:40 44.4 °F 41.9 °F 29.80 in Calm     91% 0.00 in 0 W/m2
07:46 44.3 °F 41.8 °F 29.80 in Calm     91% 0.00 in 5 W/m2
07:52 44.1 °F 41.6 °F 29.79 in Calm     91% 0.00 in 7 W/m2
07:58 43.9 °F 41.4 °F 29.79 in Calm     91% 0.00 in 9 W/m2
08:04 43.7 °F 41.2 °F 29.79 in Calm     91% 0.00 in 11 W/m2
08:10 43.5 °F 41.0 °F 29.79 in Calm     91% 0.00 in 19 W/m2
08:16 43.7 °F 41.2 °F 29.79 in Calm     91% 0.00 in 42 W/m2
08:22 43.9 °F 41.4 °F 29.79 in Calm     91% 0.00 in 63 W/m2
08:28 44.5 °F 42.0 °F 29.79 in Calm   2.0 mph 91% 0.00 in 62 W/m2
08:34 45.1 °F 42.3 °F 29.79 in NW 1.0 mph 2.0 mph 90% 0.00 in 70 W/m2
08:40 45.6 °F 42.5 °F 29.79 in Calm     89% 0.00 in 74 W/m2
08:46 45.9 °F 42.5 °F 29.79 in Calm   1.0 mph 88% 0.00 in 72 W/m2
08:52 46.0 °F 42.0 °F 29.80 in NW 1.0 mph 1.0 mph 86% 0.00 in 49 W/m2
08:58 46.1 °F 41.8 °F 29.81 in NW 1.0 mph 1.0 mph 85% 0.00 in 77 W/m2
09:04 46.4 °F 42.1 °F 29.80 in Calm     85% 0.00 in 250 W/m2
09:10 48.1 °F 42.5 °F 29.80 in NW 1.0 mph 1.0 mph 81% 0.00 in 251 W/m2
09:16 49.0 °F 42.1 °F 29.81 in NW 1.0 mph 2.0 mph 77% 0.00 in 100 W/m2
09:22 48.7 °F 42.1 °F 29.80 in NW 2.0 mph 2.0 mph 78% 0.00 in 255 W/m2
09:28 49.8 °F 42.9 °F 29.80 in NW 1.0 mph 2.0 mph 77% 0.00 in 330 W/m2
09:34 49.2 °F 41.3 °F 29.80 in NW 2.0 mph 3.0 mph 74% 0.00 in 316 W/m2
09:40 49.6 °F 42.0 °F 29.80 in North 3.0 mph 3.0 mph 75% 0.00 in 338 W/m2
09:46 50.1 °F 42.1 °F 29.80 in North 3.0 mph 4.0 mph 74% 0.00 in 352 W/m2
09:52 51.2 °F 42.8 °F 29.80 in NNW 3.0 mph 3.0 mph 73% 0.00 in 373 W/m2
09:58 51.3 °F 42.2 °F 29.79 in NNW 2.0 mph 5.0 mph 71% 0.00 in 429 W/m2
10:04 51.3 °F 42.2 °F 29.79 in North 3.0 mph 4.0 mph 71% 0.00 in 404 W/m2
10:10 51.3 °F 42.6 °F 29.79 in North 4.0 mph 4.0 mph 72% 0.00 in 417 W/m2
10:16 52.3 °F 43.5 °F 29.79 in North 3.0 mph 5.0 mph 72% 0.00 in 452 W/m2
10:22 52.3 °F 42.8 °F 29.79 in NNW 2.0 mph 4.0 mph 70% 0.00 in 489 W/m2
10:36 50.8 °F 42.5 °F 29.79 in North 3.0 mph 3.0 mph 73% 0.00 in 559 W/m2
10:42 51.8 °F 43.1 °F 29.79 in NE 3.0 mph 3.0 mph 72% 0.00 in 229 W/m2
10:48 51.2 °F 42.8 °F 29.79 in NNW 2.0 mph 3.0 mph 73% 0.00 in 148 W/m2
10:54 50.8 °F 42.5 °F 29.79 in NNW 1.0 mph 2.0 mph 73% 0.00 in 109 W/m2
11:00 50.3 °F 42.0 °F 29.79 in NNW 1.0 mph 1.0 mph 73% 0.00 in 46 W/m2
11:06 49.8 °F 41.8 °F 29.79 in NNE 2.0 mph 3.0 mph 74% 0.00 in 46 W/m2
11:12 49.6 °F 40.9 °F 29.79 in North 3.0 mph 3.0 mph 72% 0.00 in 105 W/m2
11:18 50.0 °F 42.4 °F 29.79 in North 2.0 mph 3.0 mph 75% 0.00 in 214 W/m2
11:24 50.7 °F 41.6 °F 29.79 in North 2.0 mph 2.0 mph 71% 0.00 in 169 W/m2
11:30 50.9 °F 41.8 °F 29.79 in NW 1.0 mph 2.0 mph 71% 0.00 in 74 W/m2
11:36 50.6 °F 41.5 °F 29.79 in NW 2.0 mph 2.0 mph 71% 0.00 in 171 W/m2
11:42 51.1 °F 41.7 °F 29.79 in NW 1.0 mph 2.0 mph 70% 0.00 in 165 W/m2
11:48 51.1 °F 40.5 °F 29.79 in NW 1.0 mph 3.0 mph 67% 0.00 in 139 W/m2
11:54 51.8 °F 40.4 °F 29.79 in NW 1.0 mph 2.0 mph 65% 0.00 in 148 W/m2
12:00 53.4 °F 39.4 °F 29.79 in NW 2.0 mph 2.0 mph 59% 0.00 in 686 W/m2
12:06 54.8 °F 41.2 °F 29.78 in WNW 2.0 mph 4.0 mph 60% 0.00 in 737 W/m2
12:12 53.7 °F 38.4 °F 29.79 in NW 2.0 mph 2.0 mph 56% 0.00 in 670 W/m2
12:18 55.0 °F 40.0 °F 29.78 in West 2.0 mph 3.0 mph 57% 0.00 in 752 W/m2
12:24 53.3 °F 37.1 °F 29.79 in West 2.0 mph 6.0 mph 54% 0.00 in 190 W/m2
12:30 51.9 °F 37.6 °F 29.78 in NNW 3.0 mph 3.0 mph 58% 0.00 in 172 W/m2
12:36 53.6 °F 39.2 °F 29.77 in NW 3.0 mph 3.0 mph 58% 0.00 in 745 W/m2
12:42 53.9 °F 38.1 °F 29.77 in NW 3.0 mph 3.0 mph 55% 0.00 in 165 W/m2
12:48 52.5 °F 37.7 °F 29.77 in NW 3.0 mph 3.0 mph 57% 0.00 in 200 W/m2
12:54 54.1 °F 39.6 °F 29.77 in WNW 2.0 mph 4.0 mph 58% 0.00 in 703 W/m2
13:00 53.1 °F 37.8 °F 29.77 in WNW 4.0 mph 4.0 mph 56% 0.00 in 246 W/m2
13:06 52.1 °F 37.8 °F 29.77 in NNW 5.0 mph 5.0 mph 58% 0.00 in 163 W/m2
13:12 51.7 °F 37.4 °F 29.77 in NW 3.0 mph 3.0 mph 58% 0.00 in 265 W/m2
13:18 51.9 °F 37.6 °F 29.77 in NW 3.0 mph 4.0 mph 58% 0.00 in 366 W/m2
13:24 52.7 °F 38.3 °F 29.77 in NW 4.0 mph 8.0 mph 58% 0.00 in 214 W/m2
13:30 52.1 °F 37.3 °F 29.77 in NW 4.0 mph 4.0 mph 57% 0.00 in 200 W/m2
13:36 51.4 °F 37.1 °F 29.77 in WNW 4.0 mph 4.0 mph 58% 0.00 in 181 W/m2
13:42 51.1 °F 37.7 °F 29.77 in NW 3.0 mph 3.0 mph 60% 0.00 in 163 W/m2
13:48 51.0 °F 38.4 °F 29.77 in NW 2.0 mph 4.0 mph 62% 0.00 in 162 W/m2
13:54 50.9 °F 37.9 °F 29.77 in NW 2.0 mph 5.0 mph 61% 0.00 in 132 W/m2
14:00 50.3 °F 37.4 °F 29.77 in WNW 3.0 mph 3.0 mph 61% 0.00 in 142 W/m2
14:06 50.2 °F 38.1 °F 29.78 in NNW 2.0 mph 3.0 mph 63% 0.00 in 125 W/m2
14:12 50.0 °F 37.9 °F 29.78 in NW 3.0 mph 3.0 mph 63% 0.00 in 105 W/m2
14:24 49.5 °F 37.8 °F 29.78 in NNW 2.0 mph 6.0 mph 64% 0.00 in 93 W/m2
14:30 49.4 °F 38.1 °F 29.78 in NW 2.0 mph 3.0 mph 65% 0.00 in 114 W/m2
14:36 49.5 °F 37.8 °F 29.79 in NW 2.0 mph 4.0 mph 64% 0.00 in 109 W/m2
14:42 49.6 °F 38.3 °F 29.79 in NNW 2.0 mph 2.0 mph 65% 0.00 in 125 W/m2
14:48 49.7 °F 38.4 °F 29.79 in NW 2.0 mph 4.0 mph 65% 0.00 in 285 W/m2
14:54 50.7 °F 38.6 °F 29.78 in NW 3.0 mph 4.0 mph 63% 0.00 in 236 W/m2
15:00 50.8 °F 37.8 °F 29.79 in NW 3.0 mph 3.0 mph 61% 0.00 in 436 W/m2
15:06 51.6 °F 37.7 °F 29.79 in NW 2.0 mph 5.0 mph 59% 0.00 in 179 W/m2
15:12 51.0 °F 37.6 °F 29.79 in NW 2.0 mph 2.0 mph 60% 0.00 in 179 W/m2
15:18 52.5 °F 39.8 °F 29.79 in NNW 2.0 mph 7.0 mph 62% 0.00 in 452 W/m2
15:24 52.2 °F 39.1 °F 29.79 in NW 4.0 mph 7.0 mph 61% 0.00 in 506 W/m2
15:30 53.0 °F 38.2 °F 29.79 in NW 3.0 mph 6.0 mph 57% 0.00 in 494 W/m2
15:36 52.8 °F 38.0 °F 29.79 in NW 3.0 mph 6.0 mph 57% 0.00 in 504 W/m2
15:42 52.1 °F 38.2 °F 29.79 in NW 3.0 mph 6.0 mph 59% 0.00 in 172 W/m2
15:48 51.4 °F 38.0 °F 29.79 in WNW 3.0 mph 6.0 mph 60% 0.00 in 415 W/m2
15:54 51.1 °F 38.1 °F 29.78 in WNW 3.0 mph 5.0 mph 61% 0.00 in 109 W/m2
16:00 50.3 °F 38.2 °F 29.78 in NW 3.0 mph 3.0 mph 63% 0.00 in 130 W/m2
16:06 51.5 °F 40.1 °F 29.78 in NW 2.0 mph 3.0 mph 65% 0.00 in 403 W/m2
16:12 52.2 °F 39.1 °F 29.78 in NW 2.0 mph 4.0 mph 61% 0.00 in 357 W/m2
16:18 51.9 °F 39.3 °F 29.78 in WNW 3.0 mph 4.0 mph 62% 0.00 in 459 W/m2
16:24 52.1 °F 39.5 °F 29.78 in WNW 3.0 mph 3.0 mph 62% 0.00 in 418 W/m2
16:30 52.4 °F 39.8 °F 29.78 in NNW 3.0 mph 3.0 mph 62% 0.00 in 413 W/m2
16:36 52.7 °F 39.6 °F 29.78 in NNW 3.0 mph 10.0 mph 61% 0.00 in 362 W/m2
16:42 51.9 °F 38.4 °F 29.79 in NW 3.0 mph 5.0 mph 60% 0.00 in 104 W/m2
16:48 50.2 °F 38.1 °F 29.79 in NW 4.0 mph 6.0 mph 63% 0.00 in 90 W/m2
16:54 49.4 °F 38.5 °F 29.79 in North 5.0 mph 5.0 mph 66% 0.00 in 100 W/m2
17:00 49.3 °F 38.4 °F 29.79 in NW 3.0 mph 3.0 mph 66% 0.00 in 142 W/m2
17:06 49.6 °F 37.1 °F 29.79 in NNW 2.0 mph 3.0 mph 62% 0.00 in 132 W/m2
17:12 50.0 °F 37.5 °F 29.79 in NW 2.0 mph 2.0 mph 62% 0.00 in 86 W/m2
17:18 49.9 °F 37.4 °F 29.79 in NW 2.0 mph 2.0 mph 62% 0.00 in 60 W/m2
17:24 49.5 °F 37.4 °F 29.79 in NW 2.0 mph 3.0 mph 63% 0.00 in 54 W/m2
17:30 49.3 °F 37.2 °F 29.79 in North 1.0 mph 1.0 mph 63% 0.00 in 44 W/m2
17:36 49.2 °F 37.1 °F 29.79 in NW 2.0 mph 4.0 mph 63% 0.00 in 35 W/m2
17:42 49.2 °F 36.3 °F 29.80 in WNW 2.0 mph 3.0 mph 61% 0.00 in 33 W/m2
17:48 49.4 °F 35.7 °F 29.80 in WNW 3.0 mph 3.0 mph 59% 0.00 in 28 W/m2
17:54 49.3 °F 35.6 °F 29.81 in WNW 3.0 mph 5.0 mph 59% 0.00 in 18 W/m2
18:00 49.1 °F 35.8 °F 29.81 in NW 2.0 mph 2.0 mph 60% 0.00 in 14 W/m2
18:06 48.8 °F 35.5 °F 29.81 in North 2.0 mph 4.0 mph 60% 0.00 in 5 W/m2
18:12 48.7 °F 35.4 °F 29.81 in NW 2.0 mph 2.0 mph 60% 0.00 in 0 W/m2
18:18 48.7 °F 35.8 °F 29.81 in WSW 1.0 mph 2.0 mph 61% 0.00 in 0 W/m2
18:24 48.6 °F 35.7 °F 29.81 in WSW 1.0 mph 1.0 mph 61% 0.00 in 0 W/m2
18:30 48.5 °F 35.7 °F 29.81 in West 1.0 mph 1.0 mph 61% 0.00 in 0 W/m2
18:36 48.4 °F 36.4 °F 29.81 in West 1.0 mph 1.0 mph 63% 0.00 in 0 W/m2
18:42 48.4 °F 36.0 °F 29.81 in West 1.0 mph 1.0 mph 62% 0.00 in 0 W/m2
18:48 48.2 °F 35.8 °F 29.81 in West 1.0 mph 1.0 mph 62% 0.00 in 0 W/m2
18:54 48.0 °F 36.0 °F 29.82 in West 1.0 mph 1.0 mph 63% 0.00 in 0 W/m2
19:00 47.8 °F 35.8 °F 29.82 in West 1.0 mph 1.0 mph 63% 0.00 in 0 W/m2
19:06 47.5 °F 35.9 °F 29.82 in Calm   4.0 mph 64% 0.00 in 0 W/m2
19:12 47.4 °F 35.8 °F 29.82 in West 1.0 mph 1.0 mph 64% 0.00 in 0 W/m2
19:18 47.2 °F 35.6 °F 29.82 in Calm   2.0 mph 64% 0.00 in 0 W/m2
19:24 46.9 °F 35.4 °F 29.82 in Calm     64% 0.00 in 0 W/m2
19:30 46.6 °F 35.5 °F 29.82 in Calm   2.0 mph 65% 0.00 in 0 W/m2
19:36 46.5 °F 35.4 °F 29.82 in Calm   2.0 mph 65% 0.00 in 0 W/m2
19:42 46.3 °F 35.2 °F 29.82 in Calm     65% 0.00 in 0 W/m2
19:48 46.2 °F 35.1 °F 29.82 in WSW 1.0 mph 3.0 mph 65% 0.00 in 0 W/m2
19:54 46.0 °F 35.3 °F 29.82 in WSW 1.0 mph 2.0 mph 66% 0.00 in 0 W/m2
20:00 45.8 °F 35.1 °F 29.82 in WSW 2.0 mph 3.0 mph 66% 0.00 in 0 W/m2
20:06 45.6 °F 34.9 °F 29.82 in SW 1.0 mph 3.0 mph 66% 0.00 in 0 W/m2
20:12 45.4 °F 35.1 °F 29.82 in WSW 1.0 mph 1.0 mph 67% 0.00 in 0 W/m2
20:18 45.3 °F 35.0 °F 29.82 in WSW 1.0 mph 1.0 mph 67% 0.00 in 0 W/m2
20:24 45.4 °F 35.1 °F 29.83 in SW 2.0 mph 2.0 mph 67% 0.00 in 0 W/m2
20:30 45.4 °F 35.5 °F 29.83 in WSW 2.0 mph 2.0 mph 68% 0.00 in 0 W/m2
20:36 45.4 °F 35.5 °F 29.83 in WSW 1.0 mph 3.0 mph 68% 0.00 in 0 W/m2
20:42 45.5 °F 35.5 °F 29.83 in WSW 2.0 mph 3.0 mph 68% 0.00 in 0 W/m2
20:48 45.6 °F 35.6 °F 29.83 in SW 1.0 mph 4.0 mph 68% 0.00 in 0 W/m2
20:54 45.5 °F 35.5 °F 29.83 in WSW 2.0 mph 3.0 mph 68% 0.00 in 0 W/m2
21:00 45.4 °F 35.5 °F 29.84 in WSW 2.0 mph 2.0 mph 68% 0.00 in 0 W/m2
21:06 45.4 °F 35.5 °F 29.84 in WSW 1.0 mph 2.0 mph 68% 0.00 in 0 W/m2
21:12 45.4 °F 35.5 °F 29.84 in SW 1.0 mph 2.0 mph 68% 0.00 in 0 W/m2
21:18 45.4 °F 35.5 °F 29.84 in SW 2.0 mph 4.0 mph 68% 0.00 in 0 W/m2
21:24 45.4 °F 35.8 °F 29.84 in SW 1.0 mph 1.0 mph 69% 0.00 in 0 W/m2
21:30 45.5 °F 35.9 °F 29.84 in SW 1.0 mph 7.0 mph 69% 0.00 in 0 W/m2
21:36 45.6 °F 35.6 °F 29.84 in WSW 2.0 mph 7.0 mph 68% 0.00 in 0 W/m2
21:42 45.7 °F 35.4 °F 29.84 in WSW 2.0 mph 5.0 mph 67% 0.00 in 0 W/m2
21:48 45.8 °F 35.5 °F 29.84 in SW 2.0 mph 5.0 mph 67% 0.00 in 0 W/m2
21:54 45.9 °F 35.6 °F 29.84 in SW 2.0 mph 4.0 mph 67% 0.00 in 0 W/m2
22:00 46.0 °F 35.7 °F 29.84 in SW 2.0 mph 2.0 mph 67% 0.00 in 0 W/m2
22:06 46.0 °F 35.3 °F 29.84 in WSW 2.0 mph 5.0 mph 66% 0.00 in 0 W/m2
22:12 46.1 °F 35.4 °F 29.84 in WSW 2.0 mph 4.0 mph 66% 0.00 in 0 W/m2
22:18 46.1 °F 35.4 °F 29.84 in WSW 2.0 mph 6.0 mph 66% 0.00 in 0 W/m2
22:24 46.1 °F 35.4 °F 29.84 in WSW 2.0 mph 2.0 mph 66% 0.00 in 0 W/m2
22:30 46.2 °F 35.5 °F 29.84 in WSW 1.0 mph 3.0 mph 66% 0.00 in 0 W/m2
22:36 46.3 °F 35.6 °F 29.84 in SW 1.0 mph 3.0 mph 66% 0.00 in 0 W/m2
22:42 46.3 °F 35.6 °F 29.84 in SW 1.0 mph 1.0 mph 66% 0.00 in 0 W/m2
22:48 46.3 °F 35.6 °F 29.84 in SW 1.0 mph 2.0 mph 66% 0.00 in 0 W/m2
22:54 46.4 °F 35.7 °F 29.84 in WSW 1.0 mph 2.0 mph 66% 0.00 in 0 W/m2
23:00 46.5 °F 35.7 °F 29.84 in WSW 1.0 mph 1.0 mph 66% 0.00 in 0 W/m2
23:06 46.6 °F 35.8 °F 29.84 in SW 1.0 mph 1.0 mph 66% 0.00 in 0 W/m2
23:12 46.6 °F 35.8 °F 29.83 in Calm   3.0 mph 66% 0.00 in 0 W/m2
23:18 46.6 °F 35.8 °F 29.84 in Calm   3.0 mph 66% 0.00 in 0 W/m2
23:24 46.6 °F 36.2 °F 29.84 in Calm     67% 0.00 in 0 W/m2
23:30 46.5 °F 36.1 °F 29.83 in Calm     67% 0.00 in 0 W/m2
23:36 46.5 °F 36.1 °F 29.84 in Calm     67% 0.00 in 0 W/m2
23:42 46.5 °F 36.1 °F 29.83 in Calm     67% 0.00 in 0 W/m2
23:50 46.6 °F 36.2 °F 29.83 in WSW 1.0 mph 1.0 mph 67% 0.00 in 0 W/m2
23:56 46.6 °F 36.2 °F 29.83 in WSW 1.0 mph 3.0 mph 67% 0.00 in 0 W/m2
Country Meadow, Clay, NY, USA
Compliments of Weather Underground - 2 mb